sensor_id;sensor_type;location;lat;lon;timestamp;P1;durP1;ratioP1;P2;durP2;ratioP2
25341;SDS011;13298;48.792;9.154;2023-03-01T00:01:52;20.10;;;11.50;;
25341;SDS011;13298;48.792;9.154;2023-03-01T00:04:18;18.55;;;10.20;;
25341;SDS011;13298;48.792;9.154;2023-03-01T00:06:44;20.70;;;11.23;;
25341;SDS011;13298;48.792;9.154;2023-03-01T00:09:11;19.38;;;10.77;;
25341;SDS011;13298;48.792;9.154;2023-03-01T00:11:38;19.42;;;11.02;;
25341;SDS011;13298;48.792;9.154;2023-03-01T00:14:04;19.33;;;11.32;;
25341;SDS011;13298;48.792;9.154;2023-03-01T00:16:32;21.77;;;10.52;;
25341;SDS011;13298;48.792;9.154;2023-03-01T00:19:04;19.73;;;11.27;;
25341;SDS011;13298;48.792;9.154;2023-03-01T00:21:31;18.52;;;11.38;;
25341;SDS011;13298;48.792;9.154;2023-03-01T00:23:57;18.75;;;10.73;;
25341;SDS011;13298;48.792;9.154;2023-03-01T00:26:23;24.65;;;11.32;;
25341;SDS011;13298;48.792;9.154;2023-03-01T00:28:50;18.60;;;10.60;;
25341;SDS011;13298;48.792;9.154;2023-03-01T00:31:18;23.13;;;10.77;;
25341;SDS011;13298;48.792;9.154;2023-03-01T00:33:46;22.02;;;11.13;;
25341;SDS011;13298;48.792;9.154;2023-03-01T00:36:13;19.13;;;11.57;;
25341;SDS011;13298;48.792;9.154;2023-03-01T00:38:44;20.00;;;11.23;;
25341;SDS011;13298;48.792;9.154;2023-03-01T00:41:11;19.80;;;11.38;;
25341;SDS011;13298;48.792;9.154;2023-03-01T00:43:39;23.52;;;11.23;;
25341;SDS011;13298;48.792;9.154;2023-03-01T00:46:06;18.48;;;11.15;;
25341;SDS011;13298;48.792;9.154;2023-03-01T00:48:38;17.55;;;10.82;;
25341;SDS011;13298;48.792;9.154;2023-03-01T00:53:44;18.67;;;10.98;;
25341;SDS011;13298;48.792;9.154;2023-03-01T00:56:12;20.48;;;10.98;;
25341;SDS011;13298;48.792;9.154;2023-03-01T00:58:39;20.25;;;11.57;;
25341;SDS011;13298;48.792;9.154;2023-03-01T01:01:09;21.63;;;11.57;;
25341;SDS011;13298;48.792;9.154;2023-03-01T01:03:42;17.88;;;10.68;;
25341;SDS011;13298;48.792;9.154;2023-03-01T01:06:14;19.75;;;10.77;;
25341;SDS011;13298;48.792;9.154;2023-03-01T01:08:47;21.15;;;11.07;;
25341;SDS011;13298;48.792;9.154;2023-03-01T01:11:13;19.77;;;11.05;;
25341;SDS011;13298;48.792;9.154;2023-03-01T01:13:40;17.83;;;10.88;;
25341;SDS011;13298;48.792;9.154;2023-03-01T01:16:06;19.88;;;11.13;;
25341;SDS011;13298;48.792;9.154;2023-03-01T01:18:32;17.27;;;10.00;;
25341;SDS011;13298;48.792;9.154;2023-03-01T01:21:02;21.15;;;10.93;;
25341;SDS011;13298;48.792;9.154;2023-03-01T01:23:34;18.67;;;10.93;;
25341;SDS011;13298;48.792;9.154;2023-03-01T01:26:04;20.85;;;11.75;;
25341;SDS011;13298;48.792;9.154;2023-03-01T01:28:35;19.60;;;11.82;;
25341;SDS011;13298;48.792;9.154;2023-03-01T01:31:01;26.25;;;12.43;;
25341;SDS011;13298;48.792;9.154;2023-03-01T01:33:27;23.90;;;12.98;;
25341;SDS011;13298;48.792;9.154;2023-03-01T01:35:53;22.67;;;12.43;;
25341;SDS011;13298;48.792;9.154;2023-03-01T01:38:19;22.83;;;11.32;;
25341;SDS011;13298;48.792;9.154;2023-03-01T01:40:46;21.27;;;12.45;;
25341;SDS011;13298;48.792;9.154;2023-03-01T01:43:18;21.95;;;11.48;;
25341;SDS011;13298;48.792;9.154;2023-03-01T01:45:48;22.70;;;12.25;;
25341;SDS011;13298;48.792;9.154;2023-03-01T01:48:17;23.60;;;11.73;;
25341;SDS011;13298;48.792;9.154;2023-03-01T01:53:23;19.42;;;10.55;;
25341;SDS011;13298;48.792;9.154;2023-03-01T01:55:51;20.52;;;11.45;;
25341;SDS011;13298;48.792;9.154;2023-03-01T01:58:24;22.52;;;11.40;;
25341;SDS011;13298;48.792;9.154;2023-03-01T02:00:53;21.90;;;11.77;;
25341;SDS011;13298;48.792;9.154;2023-03-01T02:03:23;21.30;;;12.07;;
25341;SDS011;13298;48.792;9.154;2023-03-01T02:06:05;26.33;;;12.98;;
25341;SDS011;13298;48.792;9.154;2023-03-01T02:09:04;22.90;;;12.32;;
25341;SDS011;13298;48.792;9.154;2023-03-01T02:11:35;22.60;;;11.82;;
25341;SDS011;13298;48.792;9.154;2023-03-01T02:14:02;22.73;;;11.95;;
25341;SDS011;13298;48.792;9.154;2023-03-01T02:16:29;23.42;;;12.18;;
25341;SDS011;13298;48.792;9.154;2023-03-01T02:18:56;20.95;;;12.25;;
25341;SDS011;13298;48.792;9.154;2023-03-01T02:21:31;21.50;;;12.85;;
25341;SDS011;13298;48.792;9.154;2023-03-01T02:24:22;22.52;;;12.85;;
25341;SDS011;13298;48.792;9.154;2023-03-01T02:27:06;23.33;;;12.43;;
25341;SDS011;13298;48.792;9.154;2023-03-01T02:29:31;21.98;;;12.15;;
25341;SDS011;13298;48.792;9.154;2023-03-01T02:31:58;23.65;;;13.15;;
25341;SDS011;13298;48.792;9.154;2023-03-01T02:34:27;21.25;;;12.52;;
25341;SDS011;13298;48.792;9.154;2023-03-01T02:37:00;25.00;;;12.68;;
25341;SDS011;13298;48.792;9.154;2023-03-01T02:39:37;26.40;;;11.98;;
25341;SDS011;13298;48.792;9.154;2023-03-01T02:42:09;23.75;;;12.20;;
25341;SDS011;13298;48.792;9.154;2023-03-01T02:44:38;21.65;;;12.00;;
25341;SDS011;13298;48.792;9.154;2023-03-01T02:47:04;24.85;;;12.13;;
25341;SDS011;13298;48.792;9.154;2023-03-01T02:49:32;23.40;;;12.43;;
25341;SDS011;13298;48.792;9.154;2023-03-01T02:57:29;21.48;;;12.77;;
25341;SDS011;13298;48.792;9.154;2023-03-01T02:59:59;23.73;;;12.45;;
25341;SDS011;13298;48.792;9.154;2023-03-01T03:02:32;22.90;;;12.80;;
25341;SDS011;13298;48.792;9.154;2023-03-01T03:07:42;24.45;;;13.10;;
25341;SDS011;13298;48.792;9.154;2023-03-01T03:10:15;22.65;;;12.98;;
25341;SDS011;13298;48.792;9.154;2023-03-01T03:12:54;25.45;;;13.43;;
25341;SDS011;13298;48.792;9.154;2023-03-01T03:15:23;23.73;;;12.65;;
25341;SDS011;13298;48.792;9.154;2023-03-01T03:17:49;22.67;;;13.13;;
25341;SDS011;13298;48.792;9.154;2023-03-01T03:20:17;22.48;;;12.90;;
25341;SDS011;13298;48.792;9.154;2023-03-01T03:22:46;21.90;;;12.55;;
25341;SDS011;13298;48.792;9.154;2023-03-01T03:25:14;22.67;;;13.07;;
25341;SDS011;13298;48.792;9.154;2023-03-01T03:27:41;22.15;;;13.00;;
25341;SDS011;13298;48.792;9.154;2023-03-01T03:30:09;24.10;;;13.18;;
25341;SDS011;13298;48.792;9.154;2023-03-01T03:32:39;23.00;;;12.13;;
25341;SDS011;13298;48.792;9.154;2023-03-01T03:35:06;20.25;;;13.35;;
25341;SDS011;13298;48.792;9.154;2023-03-01T03:37:38;24.88;;;13.23;;
25341;SDS011;13298;48.792;9.154;2023-03-01T03:40:23;19.23;;;11.73;;
25341;SDS011;13298;48.792;9.154;2023-03-01T03:42:50;24.45;;;13.43;;
25341;SDS011;13298;48.792;9.154;2023-03-01T03:45:16;24.30;;;13.50;;
25341;SDS011;13298;48.792;9.154;2023-03-01T03:47:42;22.90;;;13.52;;
25341;SDS011;13298;48.792;9.154;2023-03-01T03:50:12;23.98;;;13.23;;
25341;SDS011;13298;48.792;9.154;2023-03-01T03:52:41;25.25;;;13.82;;
25341;SDS011;13298;48.792;9.154;2023-03-01T03:55:08;23.05;;;13.10;;
25341;SDS011;13298;48.792;9.154;2023-03-01T03:57:36;26.55;;;14.27;;
25341;SDS011;13298;48.792;9.154;2023-03-01T04:00:03;21.17;;;12.27;;
25341;SDS011;13298;48.792;9.154;2023-03-01T04:02:40;26.13;;;13.70;;
25341;SDS011;13298;48.792;9.154;2023-03-01T04:05:10;25.60;;;14.00;;
25341;SDS011;13298;48.792;9.154;2023-03-01T04:07:39;26.85;;;13.13;;
25341;SDS011;13298;48.792;9.154;2023-03-01T04:10:07;22.13;;;13.23;;
25341;SDS011;13298;48.792;9.154;2023-03-01T04:12:38;22.33;;;13.10;;
25341;SDS011;13298;48.792;9.154;2023-03-01T04:15:05;23.92;;;13.50;;
25341;SDS011;13298;48.792;9.154;2023-03-01T04:17:42;28.25;;;14.43;;
25341;SDS011;13298;48.792;9.154;2023-03-01T04:22:38;23.83;;;12.50;;
25341;SDS011;13298;48.792;9.154;2023-03-01T04:25:05;20.27;;;11.88;;
25341;SDS011;13298;48.792;9.154;2023-03-01T04:27:32;22.65;;;12.23;;
25341;SDS011;13298;48.792;9.154;2023-03-01T04:29:59;23.95;;;12.95;;
25341;SDS011;13298;48.792;9.154;2023-03-01T04:32:24;21.90;;;12.55;;
25341;SDS011;13298;48.792;9.154;2023-03-01T04:34:50;23.20;;;12.02;;
25341;SDS011;13298;48.792;9.154;2023-03-01T04:37:16;26.30;;;13.85;;
25341;SDS011;13298;48.792;9.154;2023-03-01T04:39:42;22.88;;;13.43;;
25341;SDS011;13298;48.792;9.154;2023-03-01T04:42:10;25.63;;;13.18;;
25341;SDS011;13298;48.792;9.154;2023-03-01T04:44:36;21.58;;;12.50;;
25341;SDS011;13298;48.792;9.154;2023-03-01T04:47:02;22.27;;;12.68;;
25341;SDS011;13298;48.792;9.154;2023-03-01T04:49:28;21.88;;;13.23;;
25341;SDS011;13298;48.792;9.154;2023-03-01T04:51:54;22.92;;;12.77;;
25341;SDS011;13298;48.792;9.154;2023-03-01T04:54:21;24.38;;;13.48;;
25341;SDS011;13298;48.792;9.154;2023-03-01T04:56:46;20.13;;;12.48;;
25341;SDS011;13298;48.792;9.154;2023-03-01T04:59:12;22.52;;;12.90;;
25341;SDS011;13298;48.792;9.154;2023-03-01T05:01:38;23.80;;;12.38;;
25341;SDS011;13298;48.792;9.154;2023-03-01T05:04:03;22.75;;;12.48;;
25341;SDS011;13298;48.792;9.154;2023-03-01T05:06:30;21.65;;;12.98;;
25341;SDS011;13298;48.792;9.154;2023-03-01T05:08:57;23.10;;;12.63;;
25341;SDS011;13298;48.792;9.154;2023-03-01T05:11:23;21.48;;;12.65;;
25341;SDS011;13298;48.792;9.154;2023-03-01T05:13:49;21.65;;;12.32;;
25341;SDS011;13298;48.792;9.154;2023-03-01T05:16:19;23.75;;;13.38;;
25341;SDS011;13298;48.792;9.154;2023-03-01T05:18:45;29.17;;;13.43;;
25341;SDS011;13298;48.792;9.154;2023-03-01T05:21:12;27.70;;;14.27;;
25341;SDS011;13298;48.792;9.154;2023-03-01T05:23:41;22.95;;;13.60;;
25341;SDS011;13298;48.792;9.154;2023-03-01T05:26:07;24.40;;;14.27;;
25341;SDS011;13298;48.792;9.154;2023-03-01T05:28:33;24.98;;;13.55;;
25341;SDS011;13298;48.792;9.154;2023-03-01T05:30:59;21.92;;;13.57;;
25341;SDS011;13298;48.792;9.154;2023-03-01T05:33:26;26.00;;;14.35;;
25341;SDS011;13298;48.792;9.154;2023-03-01T05:35:52;27.80;;;14.00;;
25341;SDS011;13298;48.792;9.154;2023-03-01T05:38:18;22.13;;;12.38;;
25341;SDS011;13298;48.792;9.154;2023-03-01T05:40:46;21.80;;;13.20;;
25341;SDS011;13298;48.792;9.154;2023-03-01T05:43:13;23.48;;;14.00;;
25341;SDS011;13298;48.792;9.154;2023-03-01T05:45:41;25.58;;;13.65;;
25341;SDS011;13298;48.792;9.154;2023-03-01T05:48:07;23.13;;;13.60;;
25341;SDS011;13298;48.792;9.154;2023-03-01T05:50:36;24.38;;;13.95;;
25341;SDS011;13298;48.792;9.154;2023-03-01T05:53:08;20.88;;;12.95;;
25341;SDS011;13298;48.792;9.154;2023-03-01T05:55:42;27.63;;;13.48;;
25341;SDS011;13298;48.792;9.154;2023-03-01T05:58:10;22.33;;;13.50;;
25341;SDS011;13298;48.792;9.154;2023-03-01T06:00:42;27.65;;;14.52;;
25341;SDS011;13298;48.792;9.154;2023-03-01T06:03:12;24.35;;;14.35;;
25341;SDS011;13298;48.792;9.154;2023-03-01T06:05:40;23.85;;;13.90;;
25341;SDS011;13298;48.792;9.154;2023-03-01T06:08:08;22.77;;;13.75;;
25341;SDS011;13298;48.792;9.154;2023-03-01T06:10:35;26.98;;;13.23;;
25341;SDS011;13298;48.792;9.154;2023-03-01T06:13:01;27.13;;;14.20;;
25341;SDS011;13298;48.792;9.154;2023-03-01T06:15:27;25.10;;;13.68;;
25341;SDS011;13298;48.792;9.154;2023-03-01T06:17:53;25.63;;;14.73;;
25341;SDS011;13298;48.792;9.154;2023-03-01T06:20:22;25.00;;;14.02;;
25341;SDS011;13298;48.792;9.154;2023-03-01T06:22:50;25.58;;;14.95;;
25341;SDS011;13298;48.792;9.154;2023-03-01T06:25:17;24.80;;;13.88;;
25341;SDS011;13298;48.792;9.154;2023-03-01T06:27:46;27.65;;;14.40;;
25341;SDS011;13298;48.792;9.154;2023-03-01T06:30:14;26.80;;;14.23;;
25341;SDS011;13298;48.792;9.154;2023-03-01T06:32:42;28.00;;;15.07;;
25341;SDS011;13298;48.792;9.154;2023-03-01T06:35:08;26.35;;;14.30;;
25341;SDS011;13298;48.792;9.154;2023-03-01T06:37:36;24.92;;;13.75;;
25341;SDS011;13298;48.792;9.154;2023-03-01T06:40:05;23.70;;;14.02;;
25341;SDS011;13298;48.792;9.154;2023-03-01T06:42:33;24.13;;;13.98;;
25341;SDS011;13298;48.792;9.154;2023-03-01T06:45:00;22.98;;;13.57;;
25341;SDS011;13298;48.792;9.154;2023-03-01T06:47:26;24.08;;;13.32;;
25341;SDS011;13298;48.792;9.154;2023-03-01T06:49:52;25.55;;;13.68;;
25341;SDS011;13298;48.792;9.154;2023-03-01T06:52:18;30.80;;;14.75;;
25341;SDS011;13298;48.792;9.154;2023-03-01T06:54:43;27.95;;;14.00;;
25341;SDS011;13298;48.792;9.154;2023-03-01T06:57:09;27.45;;;14.55;;
25341;SDS011;13298;48.792;9.154;2023-03-01T06:59:35;24.55;;;13.77;;
25341;SDS011;13298;48.792;9.154;2023-03-01T07:02:00;28.85;;;14.63;;
25341;SDS011;13298;48.792;9.154;2023-03-01T07:04:26;25.70;;;15.45;;
25341;SDS011;13298;48.792;9.154;2023-03-01T07:06:53;27.33;;;14.27;;
25341;SDS011;13298;48.792;9.154;2023-03-01T07:09:20;27.33;;;14.80;;
25341;SDS011;13298;48.792;9.154;2023-03-01T07:11:47;24.25;;;14.23;;
25341;SDS011;13298;48.792;9.154;2023-03-01T07:14:13;22.90;;;13.45;;
25341;SDS011;13298;48.792;9.154;2023-03-01T07:16:39;30.15;;;14.82;;
25341;SDS011;13298;48.792;9.154;2023-03-01T07:19:04;25.45;;;13.95;;
25341;SDS011;13298;48.792;9.154;2023-03-01T07:21:30;25.83;;;15.00;;
25341;SDS011;13298;48.792;9.154;2023-03-01T07:23:56;27.13;;;15.38;;
25341;SDS011;13298;48.792;9.154;2023-03-01T07:26:22;27.85;;;15.38;;
25341;SDS011;13298;48.792;9.154;2023-03-01T07:28:48;25.83;;;15.65;;
25341;SDS011;13298;48.792;9.154;2023-03-01T07:31:13;30.13;;;14.93;;
25341;SDS011;13298;48.792;9.154;2023-03-01T07:33:39;30.55;;;15.80;;
25341;SDS011;13298;48.792;9.154;2023-03-01T07:36:05;26.23;;;14.82;;
25341;SDS011;13298;48.792;9.154;2023-03-01T07:38:32;27.33;;;15.13;;
25341;SDS011;13298;48.792;9.154;2023-03-01T07:41:02;25.35;;;14.57;;
25341;SDS011;13298;48.792;9.154;2023-03-01T07:43:29;26.48;;;14.60;;
25341;SDS011;13298;48.792;9.154;2023-03-01T07:45:58;25.90;;;14.57;;
25341;SDS011;13298;48.792;9.154;2023-03-01T07:48:25;27.58;;;14.88;;
25341;SDS011;13298;48.792;9.154;2023-03-01T07:50:51;31.45;;;15.25;;
25341;SDS011;13298;48.792;9.154;2023-03-01T07:53:16;27.70;;;15.45;;
25341;SDS011;13298;48.792;9.154;2023-03-01T07:55:42;30.80;;;16.30;;
25341;SDS011;13298;48.792;9.154;2023-03-01T07:58:08;27.33;;;16.13;;
25341;SDS011;13298;48.792;9.154;2023-03-01T08:00:33;28.50;;;15.60;;
25341;SDS011;13298;48.792;9.154;2023-03-01T08:03:00;29.55;;;15.85;;
25341;SDS011;13298;48.792;9.154;2023-03-01T08:05:26;26.73;;;15.18;;
25341;SDS011;13298;48.792;9.154;2023-03-01T08:07:53;27.75;;;15.48;;
25341;SDS011;13298;48.792;9.154;2023-03-01T08:10:19;29.83;;;15.90;;
25341;SDS011;13298;48.792;9.154;2023-03-01T08:12:45;27.23;;;14.60;;
25341;SDS011;13298;48.792;9.154;2023-03-01T08:15:11;28.25;;;15.00;;
25341;SDS011;13298;48.792;9.154;2023-03-01T08:17:36;29.23;;;15.85;;
25341;SDS011;13298;48.792;9.154;2023-03-01T08:20:02;29.35;;;15.20;;
25341;SDS011;13298;48.792;9.154;2023-03-01T08:22:32;26.17;;;15.55;;
25341;SDS011;13298;48.792;9.154;2023-03-01T08:24:57;28.13;;;15.65;;
25341;SDS011;13298;48.792;9.154;2023-03-01T08:27:23;30.73;;;15.80;;
25341;SDS011;13298;48.792;9.154;2023-03-01T08:29:49;26.10;;;14.50;;
25341;SDS011;13298;48.792;9.154;2023-03-01T08:32:14;27.85;;;15.63;;
25341;SDS011;13298;48.792;9.154;2023-03-01T08:34:40;31.60;;;16.40;;
25341;SDS011;13298;48.792;9.154;2023-03-01T08:37:06;30.15;;;15.15;;
25341;SDS011;13298;48.792;9.154;2023-03-01T08:39:31;28.25;;;15.25;;
25341;SDS011;13298;48.792;9.154;2023-03-01T08:41:57;27.90;;;16.48;;
25341;SDS011;13298;48.792;9.154;2023-03-01T08:44:23;29.42;;;16.33;;
25341;SDS011;13298;48.792;9.154;2023-03-01T08:46:49;25.65;;;14.82;;
25341;SDS011;13298;48.792;9.154;2023-03-01T08:49:17;28.77;;;14.98;;
25341;SDS011;13298;48.792;9.154;2023-03-01T08:51:44;28.35;;;16.48;;
25341;SDS011;13298;48.792;9.154;2023-03-01T08:54:12;27.25;;;15.55;;
25341;SDS011;13298;48.792;9.154;2023-03-01T08:56:40;28.88;;;16.10;;
25341;SDS011;13298;48.792;9.154;2023-03-01T08:59:06;28.80;;;16.38;;
25341;SDS011;13298;48.792;9.154;2023-03-01T09:01:32;23.98;;;14.55;;
25341;SDS011;13298;48.792;9.154;2023-03-01T09:03:58;28.52;;;16.25;;
25341;SDS011;13298;48.792;9.154;2023-03-01T09:06:23;28.15;;;16.20;;
25341;SDS011;13298;48.792;9.154;2023-03-01T09:08:49;29.85;;;16.13;;
25341;SDS011;13298;48.792;9.154;2023-03-01T09:11:17;27.33;;;15.80;;
25341;SDS011;13298;48.792;9.154;2023-03-01T09:13:47;26.77;;;16.05;;
25341;SDS011;13298;48.792;9.154;2023-03-01T09:16:14;29.50;;;16.02;;
25341;SDS011;13298;48.792;9.154;2023-03-01T09:18:44;27.77;;;15.65;;
25341;SDS011;13298;48.792;9.154;2023-03-01T09:21:15;25.55;;;14.65;;
25341;SDS011;13298;48.792;9.154;2023-03-01T09:23:43;28.50;;;16.73;;
25341;SDS011;13298;48.792;9.154;2023-03-01T09:26:21;29.80;;;15.00;;
25341;SDS011;13298;48.792;9.154;2023-03-01T09:28:52;28.02;;;15.50;;
25341;SDS011;13298;48.792;9.154;2023-03-01T09:31:20;30.17;;;16.52;;
25341;SDS011;13298;48.792;9.154;2023-03-01T09:33:48;27.45;;;16.23;;
25341;SDS011;13298;48.792;9.154;2023-03-01T09:36:17;31.50;;;16.60;;
25341;SDS011;13298;48.792;9.154;2023-03-01T09:38:46;25.88;;;15.45;;
25341;SDS011;13298;48.792;9.154;2023-03-01T09:44:09;29.13;;;16.45;;
25341;SDS011;13298;48.792;9.154;2023-03-01T09:46:51;24.75;;;15.38;;
25341;SDS011;13298;48.792;9.154;2023-03-01T09:49:18;25.50;;;15.65;;
25341;SDS011;13298;48.792;9.154;2023-03-01T09:51:55;26.58;;;15.85;;
25341;SDS011;13298;48.792;9.154;2023-03-01T09:54:46;27.23;;;15.57;;
25341;SDS011;13298;48.792;9.154;2023-03-01T09:57:26;29.60;;;16.63;;
25341;SDS011;13298;48.792;9.154;2023-03-01T10:06:11;28.90;;;14.80;;
25341;SDS011;13298;48.792;9.154;2023-03-01T10:11:21;28.48;;;15.90;;
25341;SDS011;13298;48.792;9.154;2023-03-01T10:16:50;28.20;;;15.88;;
25341;SDS011;13298;48.792;9.154;2023-03-01T10:19:24;26.58;;;15.60;;
25341;SDS011;13298;48.792;9.154;2023-03-01T10:21:57;29.50;;;15.70;;
25341;SDS011;13298;48.792;9.154;2023-03-01T10:24:34;27.25;;;16.50;;
25341;SDS011;13298;48.792;9.154;2023-03-01T10:27:05;30.25;;;14.75;;
25341;SDS011;13298;48.792;9.154;2023-03-01T10:32:36;28.50;;;15.10;;
25341;SDS011;13298;48.792;9.154;2023-03-01T10:35:14;25.27;;;15.32;;
25341;SDS011;13298;48.792;9.154;2023-03-01T10:38:04;27.63;;;15.53;;
25341;SDS011;13298;48.792;9.154;2023-03-01T10:40:51;23.20;;;14.18;;
25341;SDS011;13298;48.792;9.154;2023-03-01T10:43:32;23.17;;;14.10;;
25341;SDS011;13298;48.792;9.154;2023-03-01T10:46:30;23.73;;;13.48;;
25341;SDS011;13298;48.792;9.154;2023-03-01T10:49:16;23.08;;;14.13;;
25341;SDS011;13298;48.792;9.154;2023-03-01T10:51:49;23.90;;;14.25;;
25341;SDS011;13298;48.792;9.154;2023-03-01T10:54:30;24.27;;;13.98;;
25341;SDS011;13298;48.792;9.154;2023-03-01T10:57:01;21.58;;;13.20;;
25341;SDS011;13298;48.792;9.154;2023-03-01T11:02:45;25.92;;;13.95;;
25341;SDS011;13298;48.792;9.154;2023-03-01T11:10:22;23.45;;;14.45;;
25341;SDS011;13298;48.792;9.154;2023-03-01T11:15:43;23.48;;;13.68;;
25341;SDS011;13298;48.792;9.154;2023-03-01T11:18:30;27.17;;;15.57;;
25341;SDS011;13298;48.792;9.154;2023-03-01T11:20:56;23.63;;;14.50;;
25341;SDS011;13298;48.792;9.154;2023-03-01T11:23:25;23.95;;;14.48;;
25341;SDS011;13298;48.792;9.154;2023-03-01T11:25:56;24.23;;;14.98;;
25341;SDS011;13298;48.792;9.154;2023-03-01T11:28:30;25.25;;;14.18;;
25341;SDS011;13298;48.792;9.154;2023-03-01T11:31:01;25.45;;;15.73;;
25341;SDS011;13298;48.792;9.154;2023-03-01T11:33:50;21.25;;;14.15;;
25341;SDS011;13298;48.792;9.154;2023-03-01T11:42:17;23.98;;;14.68;;
25341;SDS011;13298;48.792;9.154;2023-03-01T11:44:50;25.33;;;14.88;;
25341;SDS011;13298;48.792;9.154;2023-03-01T11:53:16;24.65;;;14.57;;
25341;SDS011;13298;48.792;9.154;2023-03-01T12:02:15;23.15;;;14.30;;
25341;SDS011;13298;48.792;9.154;2023-03-01T12:13:43;22.45;;;13.52;;
25341;SDS011;13298;48.792;9.154;2023-03-01T12:34:47;20.13;;;12.77;;
25341;SDS011;13298;48.792;9.154;2023-03-01T12:46:15;20.75;;;11.57;;
25341;SDS011;13298;48.792;9.154;2023-03-01T12:54:38;19.50;;;11.32;;
25341;SDS011;13298;48.792;9.154;2023-03-01T13:03:18;21.02;;;12.43;;
25341;SDS011;13298;48.792;9.154;2023-03-01T13:09:03;20.52;;;11.75;;
25341;SDS011;13298;48.792;9.154;2023-03-01T13:11:40;18.30;;;11.50;;
25341;SDS011;13298;48.792;9.154;2023-03-01T13:16:46;20.48;;;11.73;;
25341;SDS011;13298;48.792;9.154;2023-03-01T13:19:19;19.73;;;11.68;;
25341;SDS011;13298;48.792;9.154;2023-03-01T13:21:51;19.52;;;11.70;;
25341;SDS011;13298;48.792;9.154;2023-03-01T13:24:25;18.73;;;11.02;;
25341;SDS011;13298;48.792;9.154;2023-03-01T13:29:32;23.95;;;13.75;;
25341;SDS011;13298;48.792;9.154;2023-03-01T13:32:25;20.60;;;13.38;;
25341;SDS011;13298;48.792;9.154;2023-03-01T13:37:40;22.35;;;13.65;;
25341;SDS011;13298;48.792;9.154;2023-03-01T13:42:43;21.40;;;13.40;;
25341;SDS011;13298;48.792;9.154;2023-03-01T13:47:53;20.13;;;12.38;;
25341;SDS011;13298;48.792;9.154;2023-03-01T13:50:28;24.38;;;14.55;;
25341;SDS011;13298;48.792;9.154;2023-03-01T13:52:59;24.20;;;13.82;;
25341;SDS011;13298;48.792;9.154;2023-03-01T14:01:03;21.90;;;13.70;;
25341;SDS011;13298;48.792;9.154;2023-03-01T14:03:32;25.45;;;13.93;;
25341;SDS011;13298;48.792;9.154;2023-03-01T14:06:13;23.40;;;14.00;;
25341;SDS011;13298;48.792;9.154;2023-03-01T14:09:14;23.83;;;13.68;;
25341;SDS011;13298;48.792;9.154;2023-03-01T14:11:59;23.95;;;14.63;;
25341;SDS011;13298;48.792;9.154;2023-03-01T14:14:48;25.15;;;14.45;;
25341;SDS011;13298;48.792;9.154;2023-03-01T14:20:39;24.92;;;14.55;;
25341;SDS011;13298;48.792;9.154;2023-03-01T14:23:10;27.45;;;14.77;;
25341;SDS011;13298;48.792;9.154;2023-03-01T14:25:45;26.23;;;15.32;;
25341;SDS011;13298;48.792;9.154;2023-03-01T14:28:21;23.25;;;14.27;;
25341;SDS011;13298;48.792;9.154;2023-03-01T14:30:59;25.90;;;14.77;;
25341;SDS011;13298;48.792;9.154;2023-03-01T14:33:35;24.58;;;15.68;;
25341;SDS011;13298;48.792;9.154;2023-03-01T14:41:03;23.42;;;14.68;;
25341;SDS011;13298;48.792;9.154;2023-03-01T14:43:37;24.48;;;15.18;;
25341;SDS011;13298;48.792;9.154;2023-03-01T14:46:16;23.25;;;15.20;;
25341;SDS011;13298;48.792;9.154;2023-03-01T14:48:51;22.95;;;14.43;;
25341;SDS011;13298;48.792;9.154;2023-03-01T14:51:21;30.58;;;15.30;;
25341;SDS011;13298;48.792;9.154;2023-03-01T14:53:47;25.55;;;15.60;;
25341;SDS011;13298;48.792;9.154;2023-03-01T14:56:15;26.20;;;15.15;;
25341;SDS011;13298;48.792;9.154;2023-03-01T14:58:45;27.65;;;15.30;;
25341;SDS011;13298;48.792;9.154;2023-03-01T15:01:16;21.98;;;14.35;;
25341;SDS011;13298;48.792;9.154;2023-03-01T15:03:43;23.90;;;14.15;;
25341;SDS011;13298;48.792;9.154;2023-03-01T15:06:14;29.67;;;15.88;;
25341;SDS011;13298;48.792;9.154;2023-03-01T15:08:48;24.80;;;15.93;;
25341;SDS011;13298;48.792;9.154;2023-03-01T15:11:21;29.88;;;16.15;;
25341;SDS011;13298;48.792;9.154;2023-03-01T15:13:56;24.40;;;15.00;;
25341;SDS011;13298;48.792;9.154;2023-03-01T15:18:51;28.20;;;15.02;;
25341;SDS011;13298;48.792;9.154;2023-03-01T15:23:58;22.08;;;14.05;;
25341;SDS011;13298;48.792;9.154;2023-03-01T15:26:39;28.25;;;16.08;;
25341;SDS011;13298;48.792;9.154;2023-03-01T15:29:11;24.55;;;14.25;;
25341;SDS011;13298;48.792;9.154;2023-03-01T15:31:53;27.30;;;14.65;;
25341;SDS011;13298;48.792;9.154;2023-03-01T15:34:34;30.05;;;15.88;;
25341;SDS011;13298;48.792;9.154;2023-03-01T15:37:02;27.98;;;15.05;;
25341;SDS011;13298;48.792;9.154;2023-03-01T15:39:40;24.23;;;14.80;;
25341;SDS011;13298;48.792;9.154;2023-03-01T15:45:06;27.17;;;14.98;;
25341;SDS011;13298;48.792;9.154;2023-03-01T15:47:47;23.38;;;14.57;;
25341;SDS011;13298;48.792;9.154;2023-03-01T15:50:16;21.88;;;13.20;;
25341;SDS011;13298;48.792;9.154;2023-03-01T15:52:48;23.25;;;13.88;;
25341;SDS011;13298;48.792;9.154;2023-03-01T15:55:16;24.95;;;14.85;;
25341;SDS011;13298;48.792;9.154;2023-03-01T15:57:48;21.65;;;14.77;;
25341;SDS011;13298;48.792;9.154;2023-03-01T16:00:15;23.75;;;14.27;;
25341;SDS011;13298;48.792;9.154;2023-03-01T16:02:42;26.27;;;14.95;;
25341;SDS011;13298;48.792;9.154;2023-03-01T16:05:30;25.67;;;14.48;;
25341;SDS011;13298;48.792;9.154;2023-03-01T16:07:57;22.13;;;14.48;;
25341;SDS011;13298;48.792;9.154;2023-03-01T16:10:23;26.63;;;13.65;;
25341;SDS011;13298;48.792;9.154;2023-03-01T16:12:50;22.63;;;13.38;;
25341;SDS011;13298;48.792;9.154;2023-03-01T16:15:21;27.23;;;15.55;;
25341;SDS011;13298;48.792;9.154;2023-03-01T16:17:56;22.58;;;13.93;;
25341;SDS011;13298;48.792;9.154;2023-03-01T16:20:23;25.98;;;14.32;;
25341;SDS011;13298;48.792;9.154;2023-03-01T16:22:49;26.60;;;15.05;;
25341;SDS011;13298;48.792;9.154;2023-03-01T16:25:16;22.67;;;13.98;;
25341;SDS011;13298;48.792;9.154;2023-03-01T16:27:47;28.42;;;14.85;;
25341;SDS011;13298;48.792;9.154;2023-03-01T16:30:16;23.70;;;14.07;;
25341;SDS011;13298;48.792;9.154;2023-03-01T16:32:46;23.90;;;14.23;;
25341;SDS011;13298;48.792;9.154;2023-03-01T16:35:13;22.13;;;13.85;;
25341;SDS011;13298;48.792;9.154;2023-03-01T16:37:43;20.38;;;13.27;;
25341;SDS011;13298;48.792;9.154;2023-03-01T16:40:30;20.83;;;13.05;;
25341;SDS011;13298;48.792;9.154;2023-03-01T16:42:55;20.42;;;12.70;;
25341;SDS011;13298;48.792;9.154;2023-03-01T16:45:25;22.67;;;13.35;;
25341;SDS011;13298;48.792;9.154;2023-03-01T16:48:00;25.15;;;14.27;;
25341;SDS011;13298;48.792;9.154;2023-03-01T16:50:27;22.75;;;13.35;;
25341;SDS011;13298;48.792;9.154;2023-03-01T16:52:53;23.05;;;13.18;;
25341;SDS011;13298;48.792;9.154;2023-03-01T16:55:19;27.42;;;14.18;;
25341;SDS011;13298;48.792;9.154;2023-03-01T16:57:44;21.67;;;12.65;;
25341;SDS011;13298;48.792;9.154;2023-03-01T17:00:11;23.92;;;13.80;;
25341;SDS011;13298;48.792;9.154;2023-03-01T17:02:38;25.40;;;14.00;;
25341;SDS011;13298;48.792;9.154;2023-03-01T17:05:06;23.48;;;13.38;;
25341;SDS011;13298;48.792;9.154;2023-03-01T17:07:32;23.70;;;13.80;;